| time (UTC) | temp F | wind direction | speed knots | gust knots | rain 1hr in | rain 24hr in | rain mn in | humidity % | barometer mb |
| 20260508013031 | 52 | 134 | 0.0 | 0.0 | 0.00 | 0.00 | 0.00 | 89 | 1010.6 |
| 20260508011531 | 52 | 134 | 0.0 | 0.0 | 0.00 | 0.00 | 0.00 | 88 | 1010.8 |
| 20260508010029 | 52 | 134 | 0.0 | 0.0 | 0.00 | 0.00 | 0.00 | 88 | 1010.7 |
| 20260508004532 | 52 | 134 | 0.0 | 0.0 | 0.00 | 0.00 | 0.00 | 87 | 1010.7 |
| 20260508003034 | 53 | 134 | 0.0 | 0.0 | 0.00 | 0.00 | 0.00 | 87 | 1010.8 |
| 20260508001526 | 53 | 134 | 0.0 | 0.0 | 0.00 | 0.00 | 0.00 | 85 | 1010.7 |
| 20260508000026 | 53 | 134 | 0.0 | 0.0 | 0.00 | 0.00 | 0.00 | 85 | 1010.8 |
| 20260507234523 | 53 | 134 | 0.0 | 0.0 | 0.00 | 0.00 | 0.00 | 84 | 1010.9 |
| 20260507233039 | 54 | 134 | 0.0 | 0.0 | 0.00 | 0.00 | 0.00 | 84 | 1010.9 |
| 20260507231529 | 53 | 134 | 0.0 | 0.0 | 0.00 | 0.00 | 0.00 | 85 | 1010.9 |
| 20260507230022 | 53 | 137 | 0.9 | 0.0 | 0.00 | 0.00 | 0.00 | 85 | 1010.9 |
| 20260507224522 | 53 | 244 | 0.0 | 0.0 | 0.00 | 0.00 | 0.00 | 85 | 1010.8 |
| 20260507223019 | 54 | 243 | 0.0 | 0.0 | 0.00 | 0.00 | 0.00 | 84 | 1010.8 |
| 20260507221521 | 54 | 243 | 0.0 | 0.0 | 0.00 | 0.00 | 0.00 | 82 | 1010.7 |
| 20260507220016 | 55 | 243 | 0.0 | 0.0 | 0.00 | 0.00 | 0.00 | 81 | 1010.7 |
| 20260507214517 | 55 | 244 | 0.0 | 0.0 | 0.00 | 0.00 | 0.00 | 81 | 1010.5 |
| 20260507213020 | 56 | 244 | 0.0 | 0.0 | 0.00 | 0.00 | 0.00 | 79 | 1010.4 |
| 20260507211515 | 57 | 244 | 0.0 | 0.0 | 0.00 | 0.00 | 0.00 | 77 | 1010.5 |
| 20260507210014 | 57 | 244 | 0.0 | 0.0 | 0.00 | 0.00 | 0.00 | 76 | 1010.5 |
| 20260507204519 | 59 | 244 | 0.0 | 0.0 | 0.00 | 0.00 | 0.00 | 72 | 1010.3 |
| 20260507203014 | 59 | 244 | 1.7 | 0.0 | 0.00 | 0.00 | 0.00 | 69 | 1010.1 |
| 20260507201516 | 59 | 210 | 0.9 | 0.0 | 0.00 | 0.00 | 0.00 | 70 | 1009.9 |
| 20260507200014 | 60 | 169 | 2.6 | 0.0 | 0.00 | 0.00 | 0.00 | 69 | 1009.8 |
| 20260507194512 | 60 | 154 | 1.7 | 0.0 | 0.00 | 0.00 | 0.00 | 70 | 1009.4 |
| 20260507193015 | 61 | 176 | 1.7 | 0.0 | 0.00 | 0.00 | 0.00 | 66 | 1009.4 |
| 20260507191513 | 63 | 164 | 0.0 | 0.0 | 0.00 | 0.00 | 0.00 | 63 | 1009.3 |
| 20260507190011 | 64 | 188 | 2.6 | 0.0 | 0.00 | 0.00 | 0.00 | 59 | 1009.0 |
| 20260507184510 | 65 | 182 | 3.5 | 0.0 | 0.00 | 0.00 | 0.00 | 57 | 1009.0 |
| 20260507183012 | 65 | 141 | 2.6 | 0.0 | 0.00 | 0.00 | 0.00 | 58 | 1008.8 |
| 20260507181509 | 65 | 164 | 0.9 | 0.0 | 0.00 | 0.00 | 0.00 | 58 | 1008.7 |
| 20260507180009 | 67 | 69 | 0.9 | 0.0 | 0.00 | 0.00 | 0.00 | 55 | 1008.5 |
| 20260507174508 | 67 | 69 | 0.0 | 0.0 | 0.00 | 0.00 | 0.00 | 51 | 1008.4 |
| 20260507173008 | 68 | 69 | 0.0 | 0.0 | 0.00 | 0.00 | 0.00 | 50 | 1008.3 |
| 20260507171510 | 68 | 69 | 0.0 | 0.0 | 0.00 | 0.00 | 0.00 | 49 | 1008.2 |
| 20260507170007 | 69 | 65 | 0.0 | 0.0 | 0.00 | 0.00 | 0.00 | 50 | 1008.2 |
| 20260507164506 | 70 | 133 | 0.9 | 0.0 | 0.00 | 0.00 | 0.00 | 46 | 1008.2 |
| 20260507163009 | 70 | 31 | 0.0 | 0.0 | 0.00 | 0.00 | 0.00 | 45 | 1008.2 |
| 20260507161505 | 71 | 133 | 0.0 | 0.0 | 0.00 | 0.00 | 0.00 | 41 | 1008.2 |
| 20260507160005 | 72 | 114 | 0.0 | 0.0 | 0.00 | 0.00 | 0.00 | 47 | 1008.2 |
| 20260507154504 | 74 | 68 | 0.0 | 0.0 | 0.00 | 0.00 | 0.00 | 41 | 1008.0 |
| 20260507153004 | 74 | 68 | 0.0 | 0.0 | 0.00 | 0.00 | 0.00 | 43 | 1008.0 |
| 20260507151505 | 74 | 116 | 0.0 | 0.0 | 0.00 | 0.00 | 0.00 | 42 | 1008.1 |
| 20260507150003 | 74 | 340 | 0.9 | 0.0 | 0.00 | 0.00 | 0.00 | 42 | 1008.2 |
| 20260507144501 | 75 | 333 | 0.0 | 0.0 | 0.00 | 0.00 | 0.00 | 42 | 1008.3 |
| 20260507143001 | 74 | 78 | 0.0 | 0.0 | 0.00 | 0.00 | 0.00 | 43 | 1008.4 |
| 20260507141501 | 74 | 80 | 0.0 | 0.0 | 0.00 | 0.00 | 0.00 | 43 | 1008.4 |
| 20260507140100 | 74 | 82 | 0.0 | 0.0 | 0.00 | 0.00 | 0.00 | 42 | 1008.5 |
| 20260507134602 | 73 | 133 | 0.9 | 0.0 | 0.00 | 0.00 | 0.00 | 44 | 1008.7 |
| 20260507133058 | 72 | 6 | 0.9 | 0.0 | 0.00 | 0.00 | 0.00 | 42 | 1008.9 |
| 20260507131553 | 71 | 359 | 0.0 | 0.0 | 0.00 | 0.00 | 0.00 | 47 | 1009.0 |
| 20260507130053 | 71 | 95 | 0.9 | 0.0 | 0.00 | 0.00 | 0.00 | 45 | 1009.1 |
| 20260507124553 | 72 | 136 | 1.7 | 0.0 | 0.00 | 0.00 | 0.00 | 43 | 1009.2 |
| 20260507123051 | 72 | 157 | 1.7 | 0.0 | 0.00 | 0.00 | 0.00 | 42 | 1009.3 |
| 20260507121550 | 71 | 359 | 0.0 | 0.0 | 0.00 | 0.00 | 0.00 | 48 | 1009.5 |
| 20260507120059 | 71 | 232 | 1.7 | 0.0 | 0.00 | 0.00 | 0.00 | 45 | 1009.7 |
| 20260507114549 | 72 | 86 | 0.9 | 0.0 | 0.00 | 0.00 | 0.00 | 45 | 1009.7 |
| 20260507113051 | 71 | 49 | 0.9 | 0.0 | 0.00 | 0.00 | 0.00 | 49 | 1009.9 |
| 20260507111547 | 70 | 333 | 0.0 | 0.0 | 0.00 | 0.00 | 0.00 | 47 | 1010.1 |
| 20260507110044 | 70 | 359 | 0.9 | 0.0 | 0.00 | 0.00 | 0.00 | 53 | 1010.2 |
| 20260507104541 | 69 | 95 | 0.9 | 0.0 | 0.00 | 0.00 | 0.00 | 54 | 1010.3 |
| 20260507103040 | 68 | 147 | 0.9 | 0.0 | 0.00 | 0.00 | 0.00 | 53 | 1010.4 |
| 20260507101540 | 68 | 152 | 0.9 | 0.0 | 0.00 | 0.00 | 0.00 | 57 | 1010.7 |
| 20260507100039 | 68 | 353 | 0.9 | 0.0 | 0.00 | 0.00 | 0.00 | 59 | 1010.7 |
| 20260507094532 | 67 | 117 | 0.0 | 0.0 | 0.00 | 0.00 | 0.00 | 58 | 1010.7 |
| 20260507093030 | 66 | 76 | 1.7 | 0.0 | 0.00 | 0.00 | 0.00 | 64 | 1010.8 |
| 20260507091526 | 63 | 330 | 0.9 | 0.0 | 0.00 | 0.00 | 0.00 | 69 | 1010.7 |
| 20260507090020 | 63 | 329 | 0.9 | 0.0 | 0.00 | 0.00 | 0.00 | 69 | 1010.7 |
| 20260507084516 | 62 | 350 | 0.9 | 0.0 | 0.00 | 0.00 | 0.00 | 72 | 1010.5 |
| 20260507083014 | 62 | 72 | 0.0 | 0.0 | 0.00 | 0.00 | 0.00 | 73 | 1010.6 |
| 20260507081509 | 60 | 72 | 0.0 | 0.0 | 0.00 | 0.00 | 0.00 | 79 | 1010.6 |
| 20260507080004 | 58 | 73 | 0.0 | 0.0 | 0.00 | 0.00 | 0.00 | 81 | 1010.5 |
| 20260507074606 | 58 | 79 | 0.0 | 0.0 | 0.00 | 0.00 | 0.00 | 86 | 1010.5 |
| 20260507073133 | 58 | 80 | 0.9 | 0.0 | 0.00 | 0.00 | 0.00 | 93 | 1010.5 |
| 20260507071554 | 56 | 333 | 0.9 | 0.0 | 0.00 | 0.00 | 0.00 | 96 | 1010.3 |
| 20260507070052 | 56 | 248 | 0.0 | 0.0 | 0.00 | 0.00 | 0.00 | 97 | 1010.3 |
| 20260507064608 | 55 | 246 | 0.9 | 0.0 | 0.00 | 0.00 | 0.00 | 97 | 1010.3 |
| 20260507063057 | 55 | 157 | 0.0 | 0.0 | 0.00 | 0.00 | 0.00 | 97 | 1010.3 |
| 20260507061549 | 54 | 157 | 0.0 | 0.0 | 0.00 | 0.00 | 0.00 | 97 | 1010.0 |
| 20260507060046 | 54 | 157 | 0.0 | 0.0 | 0.00 | 0.00 | 0.00 | 97 | 1009.8 |
| 20260507054545 | 53 | 157 | 0.0 | 0.0 | 0.00 | 0.00 | 0.00 | 97 | 1009.8 |
| 20260507053045 | 53 | 155 | 0.0 | 0.0 | 0.00 | 0.00 | 0.00 | 97 | 1009.6 |
| 20260507051545 | 53 | 157 | 0.0 | 0.0 | 0.00 | 0.00 | 0.00 | 97 | 1009.4 |
| 20260507050043 | 52 | 157 | 0.0 | 0.0 | 0.00 | 0.00 | 0.00 | 97 | 1009.2 |
| 20260507044543 | 52 | 157 | 0.0 | 0.0 | 0.00 | 0.00 | 0.00 | 97 | 1009.1 |
| 20260507043047 | 52 | 157 | 0.0 | 0.0 | 0.00 | 0.00 | 0.00 | 97 | 1009.0 |
| 20260507041546 | 51 | 157 | 0.0 | 0.0 | 0.00 | 0.00 | 0.00 | 96 | 1008.8 |
| 20260507040040 | 51 | 157 | 0.0 | 0.0 | 0.00 | 0.00 | 0.00 | 96 | 1008.6 |
| 20260507034544 | 51 | 155 | 0.0 | 0.0 | 0.00 | 0.00 | 0.00 | 96 | 1008.5 |
| 20260507033057 | 51 | 157 | 0.0 | 0.0 | 0.00 | 0.00 | 0.00 | 96 | 1008.5 |
| 20260507031538 | 52 | 157 | 0.0 | 0.0 | 0.00 | 0.00 | 0.00 | 96 | 1008.4 |
| 20260507030037 | 52 | 157 | 0.0 | 0.0 | 0.00 | 0.00 | 0.00 | 96 | 1008.3 |
| 20260507024543 | 53 | 157 | 0.0 | 0.0 | 0.00 | 0.00 | 0.00 | 96 | 1008.3 |
| 20260507023036 | 53 | 157 | 0.0 | 0.0 | 0.00 | 0.00 | 0.00 | 97 | 1008.4 |
| 20260507021534 | 53 | 157 | 0.0 | 0.0 | 0.00 | 0.00 | 0.00 | 97 | 1008.3 |
| 20260507020034 | 53 | 157 | 0.0 | 0.0 | 0.00 | 0.00 | 0.00 | 96 | 1008.3 |
| 20260507014533 | 53 | 157 | 0.0 | 0.0 | 0.00 | 0.00 | 0.00 | 96 | 1008.1 |